Aviation Digital Data Service (ADDS)

Output produced by METARs form (1855 UTC 25 March 2019)
found at http://www.aviationweather.gov/metar/data/
 
METAR text: LFML 251830Z AUTO 32035G54KT CAVOK 13/01 Q1012 NOSIG
Conditions at: LFML (MARSEILLE/MARIGN, FR) observed 1830 UTC 25 March 2019
Temperature: 13.0°C (55°F)
Dewpoint: 1.0°C (34°F) [RH = 44%]
Pressure (altimeter): 29.88 inches Hg (1012.0 mb)
Winds: from the NW (320 degrees) at 40 MPH (35 knots; 18.0 m/s)
gusting to 62 MPH (54 knots; 27.8 m/s)
Visibility: 6 or more miles (10+ km)
Ceiling: ceiling and visibility are OK
Clouds: unknown
Weather: no significant weather observed at this time

METAR text: LFML 251800Z AUTO 32042G54KT CAVOK 14/00 Q1011 NOSIG
Conditions at: LFML (MARSEILLE/MARIGN, FR) observed 1800 UTC 25 March 2019
Temperature: 14.0°C (57°F)
Dewpoint: 0.0°C (32°F) [RH = 38%]
Pressure (altimeter): 29.85 inches Hg (1011.0 mb)
Winds: from the NW (320 degrees) at 48 MPH (42 knots; 21.6 m/s)
gusting to 62 MPH (54 knots; 27.8 m/s)
Visibility: 6 or more miles (10+ km)
Ceiling: ceiling and visibility are OK
Clouds: unknown
Weather: no significant weather observed at this time

METAR text: LFML 251730Z AUTO 32035KT 9999 2600 FEW029 15/00 Q1011 BECMG 33035G55KT
Conditions at: LFML (MARSEILLE/MARIGN, FR) observed 1730 UTC 25 March 2019
Temperature: 15.0°C (59°F)
Dewpoint: 0.0°C (32°F) [RH = 36%]
Pressure (altimeter): 29.85 inches Hg (1011.0 mb)
Winds: from the NW (320 degrees) at 40 MPH (35 knots; 18.0 m/s)
Visibility: 6 or more miles (10+ km)
Ceiling: at least 12,000 feet AGL
Clouds: few clouds at 2900 feet AGL
Weather: no significant weather observed at this time

METAR text: LFML 251700Z AUTO 32044G58KT 9999 4000 FEW026 15/00 Q1011 BECMG 33027G55KT
Conditions at: LFML (MARSEILLE/MARIGN, FR) observed 1700 UTC 25 March 2019
Temperature: 15.0°C (59°F)
Dewpoint: 0.0°C (32°F) [RH = 36%]
Pressure (altimeter): 29.85 inches Hg (1011.0 mb)
Winds: from the NW (320 degrees) at 51 MPH (44 knots; 22.6 m/s)
gusting to 67 MPH (58 knots; 29.8 m/s)
Visibility: 6 or more miles (10+ km)
Ceiling: at least 12,000 feet AGL
Clouds: few clouds at 2600 feet AGL
Weather: no significant weather observed at this time

METAR text: LFML 251630Z AUTO 32037G51KT 9999 2700 NSC 16/01 Q1011 BECMG 33027G45KT
Conditions at: LFML (MARSEILLE/MARIGN, FR) observed 1630 UTC 25 March 2019
Temperature: 16.0°C (61°F)
Dewpoint: 1.0°C (34°F) [RH = 36%]
Pressure (altimeter): 29.85 inches Hg (1011.0 mb)
Winds: from the NW (320 degrees) at 43 MPH (37 knots; 19.0 m/s)
gusting to 59 MPH (51 knots; 26.2 m/s)
Visibility: 6 or more miles (10+ km)
Ceiling: at least 12,000 feet AGL
Clouds: sky clear below 12,000 feet AGL
Weather: no significant weather observed at this time

METAR text: LFML 251600Z AUTO 32035G45KT 9999 3900 NSC 17/01 Q1011 NOSIG
Conditions at: LFML (MARSEILLE/MARIGN, FR) observed 1600 UTC 25 March 2019
Temperature: 17.0°C (63°F)
Dewpoint: 1.0°C (34°F) [RH = 34%]
Pressure (altimeter): 29.85 inches Hg (1011.0 mb)
Winds: from the NW (320 degrees) at 40 MPH (35 knots; 18.0 m/s)
gusting to 52 MPH (45 knots; 23.1 m/s)
Visibility: 6 or more miles (10+ km)
Ceiling: at least 12,000 feet AGL
Clouds: sky clear below 12,000 feet AGL
Weather: no significant weather observed at this time

METAR text: LFML 251530Z AUTO 32035KT CAVOK 17/02 Q1012 BECMG 33027G45KT
Conditions at: LFML (MARSEILLE/MARIGN, FR) observed 1530 UTC 25 March 2019
Temperature: 17.0°C (63°F)
Dewpoint: 2.0°C (36°F) [RH = 36%]
Pressure (altimeter): 29.88 inches Hg (1012.0 mb)
Winds: from the NW (320 degrees) at 40 MPH (35 knots; 18.0 m/s)
Visibility: 6 or more miles (10+ km)
Ceiling: ceiling and visibility are OK
Clouds: unknown
Weather: no significant weather observed at this time

METAR text: LFML 251500Z AUTO 31034G44KT 9999 0500 R13L/P4900 R31R/P4900 R13R/0800N // NSC 18/03 Q1012
Conditions at: LFML (MARSEILLE/MARIGN, FR) observed 1500 UTC 25 March 2019
Temperature: 18.0°C (64°F)
Dewpoint: 3.0°C (37°F) [RH = 37%]
Pressure (altimeter): 29.88 inches Hg (1012.0 mb)
Winds: from the NW (310 degrees) at 39 MPH (34 knots; 17.5 m/s)
gusting to 51 MPH (44 knots; 22.6 m/s)
Visibility: 6 or more miles (10+ km)
Ceiling: at least 12,000 feet AGL
Clouds: sky clear below 12,000 feet AGL
Weather: no significant weather observed at this time

METAR text: LFML 251430Z AUTO 32031KT 9000 2100 FEW016 18/03 Q1012 BECMG 33027G45KT
Conditions at: LFML (MARSEILLE/MARIGN, FR) observed 1430 UTC 25 March 2019
Temperature: 18.0°C (64°F)
Dewpoint: 3.0°C (37°F) [RH = 37%]
Pressure (altimeter): 29.88 inches Hg (1012.0 mb)
Winds: from the NW (320 degrees) at 36 MPH (31 knots; 15.9 m/s)
Visibility: 6 miles ( 9 km)
Ceiling: at least 12,000 feet AGL
Clouds: few clouds at 1600 feet AGL
Weather: no significant weather observed at this time

METAR text: LFML 251400Z AUTO 32029KT 9000 0600 R13L/P4900 R31R/P4900 R13R/1900D // NSC 18/04 Q1013
Conditions at: LFML (MARSEILLE/MARIGN, FR) observed 1400 UTC 25 March 2019
Temperature: 18.0°C (64°F)
Dewpoint: 4.0°C (39°F) [RH = 39%]
Pressure (altimeter): 29.91 inches Hg (1013.0 mb)
Winds: from the NW (320 degrees) at 33 MPH (29 knots; 14.9 m/s)
Visibility: 6 miles ( 9 km)
Ceiling: at least 12,000 feet AGL
Clouds: sky clear below 12,000 feet AGL
Weather: no significant weather observed at this time

METAR text: LFML 251330Z AUTO 33028KT 9000 2200 NSC 18/05 Q1013 BECMG 33030G45KT
Conditions at: LFML (MARSEILLE/MARIGN, FR) observed 1330 UTC 25 March 2019
Temperature: 18.0°C (64°F)
Dewpoint: 5.0°C (41°F) [RH = 42%]
Pressure (altimeter): 29.91 inches Hg (1013.0 mb)
Winds: from the NNW (330 degrees) at 32 MPH (28 knots; 14.4 m/s)
Visibility: 6 miles ( 9 km)
Ceiling: at least 12,000 feet AGL
Clouds: sky clear below 12,000 feet AGL
Weather: no significant weather observed at this time

METAR text: LFML 251300Z AUTO 32023G33KT 8000 2000 NSC 18/05 Q1014 BECMG 33030G45KT
Conditions at: LFML (MARSEILLE/MARIGN, FR) observed 1300 UTC 25 March 2019
Temperature: 18.0°C (64°F)
Dewpoint: 5.0°C (41°F) [RH = 42%]
Pressure (altimeter): 29.94 inches Hg (1014.0 mb)
Winds: from the NW (320 degrees) at 26 MPH (23 knots; 11.8 m/s)
gusting to 38 MPH (33 knots; 17.0 m/s)
Visibility: 5 miles ( 8 km)
Ceiling: at least 12,000 feet AGL
Clouds: sky clear below 12,000 feet AGL
Weather: no significant weather observed at this time

METAR text: LFML 251230Z AUTO 33026KT 8000 2300 NSC 18/05 Q1015 BECMG 33030G45KT
Conditions at: LFML (MARSEILLE/MARIGN, FR) observed 1230 UTC 25 March 2019
Temperature: 18.0°C (64°F)
Dewpoint: 5.0°C (41°F) [RH = 42%]
Pressure (altimeter): 29.97 inches Hg (1015.0 mb)
Winds: from the NNW (330 degrees) at 30 MPH (26 knots; 13.4 m/s)
Visibility: 5 miles ( 8 km)
Ceiling: at least 12,000 feet AGL
Clouds: sky clear below 12,000 feet AGL
Weather: no significant weather observed at this time

METAR text: LFML 251200Z AUTO 33025KT 7000 2600 FEW014 17/05 Q1015 BECMG 33020G30KT
Conditions at: LFML (MARSEILLE/MARIGN, FR) observed 1200 UTC 25 March 2019
Temperature: 17.0°C (63°F)
Dewpoint: 5.0°C (41°F) [RH = 45%]
Pressure (altimeter): 29.97 inches Hg (1015.0 mb)
Winds: from the NNW (330 degrees) at 29 MPH (25 knots; 12.9 m/s)
Visibility: 4 miles ( 7 km)
Ceiling: at least 12,000 feet AGL
Clouds: few clouds at 1400 feet AGL
Weather: no significant weather observed at this time

METAR text: LFML 251130Z AUTO 32026KT 7000 2300 FEW011 17/05 Q1016 BECMG 33020G30KT
Conditions at: LFML (MARSEILLE/MARIGN, FR) observed 1130 UTC 25 March 2019
Temperature: 17.0°C (63°F)
Dewpoint: 5.0°C (41°F) [RH = 45%]
Pressure (altimeter): 30.00 inches Hg (1016.0 mb)
Winds: from the NW (320 degrees) at 30 MPH (26 knots; 13.4 m/s)
Visibility: 4 miles ( 7 km)
Ceiling: at least 12,000 feet AGL
Clouds: few clouds at 1100 feet AGL
Weather: no significant weather observed at this time

METAR text: LFML 251100Z AUTO 32025KT 7000 3400 NSC 17/06 Q1016 BECMG 33020G30KT
Conditions at: LFML (MARSEILLE/MARIGN, FR) observed 1100 UTC 25 March 2019
Temperature: 17.0°C (63°F)
Dewpoint: 6.0°C (43°F) [RH = 48%]
Pressure (altimeter): 30.00 inches Hg (1016.0 mb)
Winds: from the NW (320 degrees) at 29 MPH (25 knots; 12.9 m/s)
Visibility: 4 miles ( 7 km)
Ceiling: at least 12,000 feet AGL
Clouds: sky clear below 12,000 feet AGL
Weather: no significant weather observed at this time

METAR text: LFML 251030Z AUTO 32025KT 7000 NSC 16/06 Q1017 BECMG 33020G30KT
Conditions at: LFML (MARSEILLE/MARIGN, FR) observed 1030 UTC 25 March 2019
Temperature: 16.0°C (61°F)
Dewpoint: 6.0°C (43°F) [RH = 51%]
Pressure (altimeter): 30.03 inches Hg (1017.0 mb)
Winds: from the NW (320 degrees) at 29 MPH (25 knots; 12.9 m/s)
Visibility: 4 miles ( 7 km)
Ceiling: at least 12,000 feet AGL
Clouds: sky clear below 12,000 feet AGL
Weather: no significant weather observed at this time

METAR text: LFML 251000Z AUTO 33024KT 6000 NSC 16/06 Q1017 BECMG 33020G30KT
Conditions at: LFML (MARSEILLE/MARIGN, FR) observed 1000 UTC 25 March 2019
Temperature: 16.0°C (61°F)
Dewpoint: 6.0°C (43°F) [RH = 51%]
Pressure (altimeter): 30.03 inches Hg (1017.0 mb)
Winds: from the NNW (330 degrees) at 28 MPH (24 knots; 12.3 m/s)
Visibility: 4 miles ( 6 km)
Ceiling: at least 12,000 feet AGL
Clouds: sky clear below 12,000 feet AGL
Weather: no significant weather observed at this time

METAR text: LFML 250930Z AUTO 32024KT 6000 NSC 15/06 Q1017 BECMG 33020G30KT
Conditions at: LFML (MARSEILLE/MARIGN, FR) observed 0930 UTC 25 March 2019
Temperature: 15.0°C (59°F)
Dewpoint: 6.0°C (43°F) [RH = 55%]
Pressure (altimeter): 30.03 inches Hg (1017.0 mb)
Winds: from the NW (320 degrees) at 28 MPH (24 knots; 12.3 m/s)
Visibility: 4 miles ( 6 km)
Ceiling: at least 12,000 feet AGL
Clouds: sky clear below 12,000 feet AGL
Weather: no significant weather observed at this time

METAR text: LFML 250900Z AUTO 32024KT 6000 FEW017 14/06 Q1017 BECMG 33020G30KT
Conditions at: LFML (MARSEILLE/MARIGN, FR) observed 0900 UTC 25 March 2019
Temperature: 14.0°C (57°F)
Dewpoint: 6.0°C (43°F) [RH = 58%]
Pressure (altimeter): 30.03 inches Hg (1017.0 mb)
Winds: from the NW (320 degrees) at 28 MPH (24 knots; 12.3 m/s)
Visibility: 4 miles ( 6 km)
Ceiling: at least 12,000 feet AGL
Clouds: few clouds at 1700 feet AGL
Weather: no significant weather observed at this time

METAR text: LFML 250830Z AUTO 32021KT 6000 NSC 14/06 Q1017 BECMG 34020G30KT
Conditions at: LFML (MARSEILLE/MARIGN, FR) observed 0830 UTC 25 March 2019
Temperature: 14.0°C (57°F)
Dewpoint: 6.0°C (43°F) [RH = 58%]
Pressure (altimeter): 30.03 inches Hg (1017.0 mb)
Winds: from the NW (320 degrees) at 24 MPH (21 knots; 10.8 m/s)
Visibility: 4 miles ( 6 km)
Ceiling: at least 12,000 feet AGL
Clouds: sky clear below 12,000 feet AGL
Weather: no significant weather observed at this time

METAR text: LFML 250800Z AUTO 32018KT 7000 FEW014 13/06 Q1018 BECMG 34020G30KT
Conditions at: LFML (MARSEILLE/MARIGN, FR) observed 0800 UTC 25 March 2019
Temperature: 13.0°C (55°F)
Dewpoint: 6.0°C (43°F) [RH = 62%]
Pressure (altimeter): 30.06 inches Hg (1018.0 mb)
Winds: from the NW (320 degrees) at 21 MPH (18 knots; 9.3 m/s)
Visibility: 4 miles ( 7 km)
Ceiling: at least 12,000 feet AGL
Clouds: few clouds at 1400 feet AGL
Weather: no significant weather observed at this time

METAR text: LFML 250730Z AUTO 32013KT 6000 NSC 13/06 Q1018 BECMG 34020G30KT
Conditions at: LFML (MARSEILLE/MARIGN, FR) observed 0730 UTC 25 March 2019
Temperature: 13.0°C (55°F)
Dewpoint: 6.0°C (43°F) [RH = 62%]
Pressure (altimeter): 30.06 inches Hg (1018.0 mb)
Winds: from the NW (320 degrees) at 15 MPH (13 knots; 6.7 m/s)
Visibility: 4 miles ( 6 km)
Ceiling: at least 12,000 feet AGL
Clouds: sky clear below 12,000 feet AGL
Weather: no significant weather observed at this time

METAR text: LFML 250700Z AUTO 32013KT 280V340 6000 FEW017 12/06 Q1018 BECMG 34020G30KT
Conditions at: LFML (MARSEILLE/MARIGN, FR) observed 0700 UTC 25 March 2019
Temperature: 12.0°C (54°F)
Dewpoint: 6.0°C (43°F) [RH = 67%]
Pressure (altimeter): 30.06 inches Hg (1018.0 mb)
Winds: from the NW (320 degrees) at 15 MPH (13 knots; 6.7 m/s)
Visibility: 4 miles ( 6 km)
Ceiling: at least 12,000 feet AGL
Clouds: few clouds at 1700 feet AGL
Weather: no significant weather observed at this time

METAR text: LFML 250630Z AUTO 31014KT 6000 NSC 12/06 Q1018 BECMG 34020G30KT
Conditions at: LFML (MARSEILLE/MARIGN, FR) observed 0630 UTC 25 March 2019
Temperature: 12.0°C (54°F)
Dewpoint: 6.0°C (43°F) [RH = 67%]
Pressure (altimeter): 30.06 inches Hg (1018.0 mb)
Winds: from the NW (310 degrees) at 16 MPH (14 knots; 7.2 m/s)
Visibility: 4 miles ( 6 km)
Ceiling: at least 12,000 feet AGL
Clouds: sky clear below 12,000 feet AGL
Weather: no significant weather observed at this time

METAR text: LFML 250600Z AUTO 31012KT 6000 NSC 11/05 Q1018 BECMG 34020G30KT
Conditions at: LFML (MARSEILLE/MARIGN, FR) observed 0600 UTC 25 March 2019
Temperature: 11.0°C (52°F)
Dewpoint: 5.0°C (41°F) [RH = 66%]
Pressure (altimeter): 30.06 inches Hg (1018.0 mb)
Winds: from the NW (310 degrees) at 14 MPH (12 knots; 6.2 m/s)
Visibility: 4 miles ( 6 km)
Ceiling: at least 12,000 feet AGL
Clouds: sky clear below 12,000 feet AGL
Weather: no significant weather observed at this time

METAR text: LFML 250530Z AUTO 31012KT 6000 NSC 11/05 Q1018 BECMG 34020G30KT
Conditions at: LFML (MARSEILLE/MARIGN, FR) observed 0530 UTC 25 March 2019
Temperature: 11.0°C (52°F)
Dewpoint: 5.0°C (41°F) [RH = 66%]
Pressure (altimeter): 30.06 inches Hg (1018.0 mb)
Winds: from the NW (310 degrees) at 14 MPH (12 knots; 6.2 m/s)
Visibility: 4 miles ( 6 km)
Ceiling: at least 12,000 feet AGL
Clouds: sky clear below 12,000 feet AGL
Weather: no significant weather observed at this time

METAR text: LFML 250500Z AUTO 31012KT 7000 NSC 11/05 Q1018 BECMG 34020G30KT
Conditions at: LFML (MARSEILLE/MARIGN, FR) observed 0500 UTC 25 March 2019
Temperature: 11.0°C (52°F)
Dewpoint: 5.0°C (41°F) [RH = 66%]
Pressure (altimeter): 30.06 inches Hg (1018.0 mb)
Winds: from the NW (310 degrees) at 14 MPH (12 knots; 6.2 m/s)
Visibility: 4 miles ( 7 km)
Ceiling: at least 12,000 feet AGL
Clouds: sky clear below 12,000 feet AGL
Weather: no significant weather observed at this time

METAR text: LFML 250430Z AUTO 32011KT 7000 NSC 12/05 Q1018 BECMG 34020G30KT
Conditions at: LFML (MARSEILLE/MARIGN, FR) observed 0430 UTC 25 March 2019
Temperature: 12.0°C (54°F)
Dewpoint: 5.0°C (41°F) [RH = 62%]
Pressure (altimeter): 30.06 inches Hg (1018.0 mb)
Winds: from the NW (320 degrees) at 13 MPH (11 knots; 5.7 m/s)
Visibility: 4 miles ( 7 km)
Ceiling: at least 12,000 feet AGL
Clouds: sky clear below 12,000 feet AGL
Weather: no significant weather observed at this time

METAR text: LFML 250400Z AUTO 33010KT 7000 NSC 12/05 Q1018 NOSIG
Conditions at: LFML (MARSEILLE/MARIGN, FR) observed 0400 UTC 25 March 2019
Temperature: 12.0°C (54°F)
Dewpoint: 5.0°C (41°F) [RH = 62%]
Pressure (altimeter): 30.06 inches Hg (1018.0 mb)
Winds: from the NNW (330 degrees) at 12 MPH (10 knots; 5.1 m/s)
Visibility: 4 miles ( 7 km)
Ceiling: at least 12,000 feet AGL
Clouds: sky clear below 12,000 feet AGL
Weather: no significant weather observed at this time

METAR text: LFML 250330Z AUTO 33012KT 9000 NSC 12/06 Q1018 NOSIG
Conditions at: LFML (MARSEILLE/MARIGN, FR) observed 0330 UTC 25 March 2019
Temperature: 12.0°C (54°F)
Dewpoint: 6.0°C (43°F) [RH = 67%]
Pressure (altimeter): 30.06 inches Hg (1018.0 mb)
Winds: from the NNW (330 degrees) at 14 MPH (12 knots; 6.2 m/s)
Visibility: 6 miles ( 9 km)
Ceiling: at least 12,000 feet AGL
Clouds: sky clear below 12,000 feet AGL
Weather: no significant weather observed at this time

METAR text: LFML 250300Z AUTO 29007KT 180V340 CAVOK 11/06 Q1018 NOSIG
Conditions at: LFML (MARSEILLE/MARIGN, FR) observed 0300 UTC 25 March 2019
Temperature: 11.0°C (52°F)
Dewpoint: 6.0°C (43°F) [RH = 71%]
Pressure (altimeter): 30.06 inches Hg (1018.0 mb)
Winds: from the WNW (290 degrees) at 8 MPH (7 knots; 3.6 m/s)
Visibility: 6 or more miles (10+ km)
Ceiling: ceiling and visibility are OK
Clouds: unknown
Weather: no significant weather observed at this time

METAR text: LFML 250230Z AUTO 12004KT CAVOK 07/03 Q1018 BECMG 34015KT
Conditions at: LFML (MARSEILLE/MARIGN, FR) observed 0230 UTC 25 March 2019
Temperature: 7.0°C (45°F)
Dewpoint: 3.0°C (37°F) [RH = 76%]
Pressure (altimeter): 30.06 inches Hg (1018.0 mb)
Winds: from the ESE (120 degrees) at 5 MPH (4 knots; 2.1 m/s)
Visibility: 6 or more miles (10+ km)
Ceiling: ceiling and visibility are OK
Clouds: unknown
Weather: no significant weather observed at this time

METAR text: LFML 250200Z AUTO 14006KT CAVOK 07/03 Q1018 BECMG 34015KT
Conditions at: LFML (MARSEILLE/MARIGN, FR) observed 0200 UTC 25 March 2019
Temperature: 7.0°C (45°F)
Dewpoint: 3.0°C (37°F) [RH = 76%]
Pressure (altimeter): 30.06 inches Hg (1018.0 mb)
Winds: from the SE (140 degrees) at 7 MPH (6 knots; 3.1 m/s)
Visibility: 6 or more miles (10+ km)
Ceiling: ceiling and visibility are OK
Clouds: unknown
Weather: no significant weather observed at this time

METAR text: LFML 250130Z AUTO 12004KT CAVOK 08/04 Q1018 BECMG 34015KT
Conditions at: LFML (MARSEILLE/MARIGN, FR) observed 0130 UTC 25 March 2019
Temperature: 8.0°C (46°F)
Dewpoint: 4.0°C (39°F) [RH = 76%]
Pressure (altimeter): 30.06 inches Hg (1018.0 mb)
Winds: from the ESE (120 degrees) at 5 MPH (4 knots; 2.1 m/s)
Visibility: 6 or more miles (10+ km)
Ceiling: ceiling and visibility are OK
Clouds: unknown
Weather: no significant weather observed at this time

METAR text: LFML 250100Z AUTO 14006KT CAVOK 08/03 Q1019 BECMG 34015KT
Conditions at: LFML (MARSEILLE/MARIGN, FR) observed 0100 UTC 25 March 2019
Temperature: 8.0°C (46°F)
Dewpoint: 3.0°C (37°F) [RH = 71%]
Pressure (altimeter): 30.09 inches Hg (1019.0 mb)
Winds: from the SE (140 degrees) at 7 MPH (6 knots; 3.1 m/s)
Visibility: 6 or more miles (10+ km)
Ceiling: ceiling and visibility are OK
Clouds: unknown
Weather: no significant weather observed at this time

METAR text: LFML 250030Z AUTO 15005KT CAVOK 08/03 Q1019 BECMG 34015KT
Conditions at: LFML (MARSEILLE/MARIGN, FR) observed 0030 UTC 25 March 2019
Temperature: 8.0°C (46°F)
Dewpoint: 3.0°C (37°F) [RH = 71%]
Pressure (altimeter): 30.09 inches Hg (1019.0 mb)
Winds: from the SSE (150 degrees) at 6 MPH (5 knots; 2.6 m/s)
Visibility: 6 or more miles (10+ km)
Ceiling: ceiling and visibility are OK
Clouds: unknown
Weather: no significant weather observed at this time

METAR text: LFML 250000Z AUTO 20004KT CAVOK 08/03 Q1019 BECMG 34015KT
Conditions at: LFML (MARSEILLE/MARIGN, FR) observed 0000 UTC 25 March 2019
Temperature: 8.0°C (46°F)
Dewpoint: 3.0°C (37°F) [RH = 71%]
Pressure (altimeter): 30.09 inches Hg (1019.0 mb)
Winds: from the SSW (200 degrees) at 5 MPH (4 knots; 2.1 m/s)
Visibility: 6 or more miles (10+ km)
Ceiling: ceiling and visibility are OK
Clouds: unknown
Weather: no significant weather observed at this time

METAR text: LFML 242330Z AUTO VRB01KT CAVOK 10/03 Q1019 BECMG 34015KT
Conditions at: LFML (MARSEILLE/MARIGN, FR) observed 2330 UTC 24 March 2019
Temperature: 10.0°C (50°F)
Dewpoint: 3.0°C (37°F) [RH = 62%]
Pressure (altimeter): 30.09 inches Hg (1019.0 mb)
Winds: variable direction winds at 1 MPH (1 knots; 0.5 m/s)
Visibility: 6 or more miles (10+ km)
Ceiling: ceiling and visibility are OK
Clouds: unknown
Weather: no significant weather observed at this time

METAR text: LFML 242300Z AUTO 11002KT CAVOK 10/03 Q1019 NOSIG
Conditions at: LFML (MARSEILLE/MARIGN, FR) observed 2300 UTC 24 March 2019
Temperature: 10.0°C (50°F)
Dewpoint: 3.0°C (37°F) [RH = 62%]
Pressure (altimeter): 30.09 inches Hg (1019.0 mb)
Winds: from the ESE (110 degrees) at 2 MPH (2 knots; 1.0 m/s)
Visibility: 6 or more miles (10+ km)
Ceiling: ceiling and visibility are OK
Clouds: unknown
Weather: no significant weather observed at this time

METAR text: LFML 242230Z AUTO 12004KT CAVOK 11/03 Q1019 NOSIG
Conditions at: LFML (MARSEILLE/MARIGN, FR) observed 2230 UTC 24 March 2019
Temperature: 11.0°C (52°F)
Dewpoint: 3.0°C (37°F) [RH = 58%]
Pressure (altimeter): 30.09 inches Hg (1019.0 mb)
Winds: from the ESE (120 degrees) at 5 MPH (4 knots; 2.1 m/s)
Visibility: 6 or more miles (10+ km)
Ceiling: ceiling and visibility are OK
Clouds: unknown
Weather: no significant weather observed at this time

METAR text: LFML 242200Z AUTO 13004KT CAVOK 12/03 Q1020 NOSIG
Conditions at: LFML (MARSEILLE/MARIGN, FR) observed 2200 UTC 24 March 2019
Temperature: 12.0°C (54°F)
Dewpoint: 3.0°C (37°F) [RH = 54%]
Pressure (altimeter): 30.12 inches Hg (1020.0 mb)
Winds: from the SE (130 degrees) at 5 MPH (4 knots; 2.1 m/s)
Visibility: 6 or more miles (10+ km)
Ceiling: ceiling and visibility are OK
Clouds: unknown
Weather: no significant weather observed at this time

METAR text: LFML 242130Z AUTO 16004KT CAVOK 10/03 Q1020 NOSIG
Conditions at: LFML (MARSEILLE/MARIGN, FR) observed 2130 UTC 24 March 2019
Temperature: 10.0°C (50°F)
Dewpoint: 3.0°C (37°F) [RH = 62%]
Pressure (altimeter): 30.12 inches Hg (1020.0 mb)
Winds: from the SSE (160 degrees) at 5 MPH (4 knots; 2.1 m/s)
Visibility: 6 or more miles (10+ km)
Ceiling: ceiling and visibility are OK
Clouds: unknown
Weather: no significant weather observed at this time

METAR text: LFML 242100Z AUTO 23005KT CAVOK 11/04 Q1020 NOSIG
Conditions at: LFML (MARSEILLE/MARIGN, FR) observed 2100 UTC 24 March 2019
Temperature: 11.0°C (52°F)
Dewpoint: 4.0°C (39°F) [RH = 62%]
Pressure (altimeter): 30.12 inches Hg (1020.0 mb)
Winds: from the SW (230 degrees) at 6 MPH (5 knots; 2.6 m/s)
Visibility: 6 or more miles (10+ km)
Ceiling: ceiling and visibility are OK
Clouds: unknown
Weather: no significant weather observed at this time

METAR text: LFML 242030Z AUTO 07002KT CAVOK 13/04 Q1020 NOSIG
Conditions at: LFML (MARSEILLE/MARIGN, FR) observed 2030 UTC 24 March 2019
Temperature: 13.0°C (55°F)
Dewpoint: 4.0°C (39°F) [RH = 54%]
Pressure (altimeter): 30.12 inches Hg (1020.0 mb)
Winds: from the ENE (70 degrees) at 2 MPH (2 knots; 1.0 m/s)
Visibility: 6 or more miles (10+ km)
Ceiling: ceiling and visibility are OK
Clouds: unknown
Weather: no significant weather observed at this time

METAR text: LFML 242000Z AUTO 13003KT CAVOK 14/03 Q1020 NOSIG
Conditions at: LFML (MARSEILLE/MARIGN, FR) observed 2000 UTC 24 March 2019
Temperature: 14.0°C (57°F)
Dewpoint: 3.0°C (37°F) [RH = 47%]
Pressure (altimeter): 30.12 inches Hg (1020.0 mb)
Winds: from the SE (130 degrees) at 3 MPH (3 knots; 1.5 m/s)
Visibility: 6 or more miles (10+ km)
Ceiling: ceiling and visibility are OK
Clouds: unknown
Weather: no significant weather observed at this time

METAR text: LFML 241930Z AUTO 17004KT 9999 FEW009 14/06 Q1020 NOSIG
Conditions at: LFML (MARSEILLE/MARIGN, FR) observed 1930 UTC 24 March 2019
Temperature: 14.0°C (57°F)
Dewpoint: 6.0°C (43°F) [RH = 58%]
Pressure (altimeter): 30.12 inches Hg (1020.0 mb)
Winds: from the S (170 degrees) at 5 MPH (4 knots; 2.1 m/s)
Visibility: 6 or more miles (10+ km)
Ceiling: at least 12,000 feet AGL
Clouds: few clouds at 900 feet AGL
Weather: no significant weather observed at this time

METAR text: LFML 241900Z AUTO 19005KT CAVOK 14/05 Q1020 NOSIG
Conditions at: LFML (MARSEILLE/MARIGN, FR) observed 1900 UTC 24 March 2019
Temperature: 14.0°C (57°F)
Dewpoint: 5.0°C (41°F) [RH = 55%]
Pressure (altimeter): 30.12 inches Hg (1020.0 mb)
Winds: from the S (190 degrees) at 6 MPH (5 knots; 2.6 m/s)
Visibility: 6 or more miles (10+ km)
Ceiling: ceiling and visibility are OK
Clouds: unknown
Weather: no significant weather observed at this time

METAR text: LFML 241830Z AUTO VRB02KT 9999 NSC 16/04 Q1020 NOSIG
Conditions at: LFML (MARSEILLE/MARIGN, FR) observed 1830 UTC 24 March 2019
Temperature: 16.0°C (61°F)
Dewpoint: 4.0°C (39°F) [RH = 45%]
Pressure (altimeter): 30.12 inches Hg (1020.0 mb)
Winds: variable direction winds at 2 MPH (2 knots; 1.0 m/s)
Visibility: 6 or more miles (10+ km)
Ceiling: at least 12,000 feet AGL
Clouds: sky clear below 12,000 feet AGL
Weather: no significant weather observed at this time

METAR text: LFML 241800Z AUTO 20006KT CAVOK 15/07 Q1020 NOSIG
Conditions at: LFML (MARSEILLE/MARIGN, FR) observed 1800 UTC 24 March 2019
Temperature: 15.0°C (59°F)
Dewpoint: 7.0°C (45°F) [RH = 59%]
Pressure (altimeter): 30.12 inches Hg (1020.0 mb)
Winds: from the SSW (200 degrees) at 7 MPH (6 knots; 3.1 m/s)
Visibility: 6 or more miles (10+ km)
Ceiling: ceiling and visibility are OK
Clouds: unknown
Weather: no significant weather observed at this time

METAR text: LFML 241730Z AUTO 20007KT CAVOK 17/07 Q1020 NOSIG
Conditions at: LFML (MARSEILLE/MARIGN, FR) observed 1730 UTC 24 March 2019
Temperature: 17.0°C (63°F)
Dewpoint: 7.0°C (45°F) [RH = 52%]
Pressure (altimeter): 30.12 inches Hg (1020.0 mb)
Winds: from the SSW (200 degrees) at 8 MPH (7 knots; 3.6 m/s)
Visibility: 6 or more miles (10+ km)
Ceiling: ceiling and visibility are OK
Clouds: unknown
Weather: no significant weather observed at this time

METAR text: LFML 241700Z AUTO 18007KT CAVOK 18/07 Q1019 NOSIG
Conditions at: LFML (MARSEILLE/MARIGN, FR) observed 1700 UTC 24 March 2019
Temperature: 18.0°C (64°F)
Dewpoint: 7.0°C (45°F) [RH = 49%]
Pressure (altimeter): 30.09 inches Hg (1019.0 mb)
Winds: from the S (180 degrees) at 8 MPH (7 knots; 3.6 m/s)
Visibility: 6 or more miles (10+ km)
Ceiling: ceiling and visibility are OK
Clouds: unknown
Weather: no significant weather observed at this time

METAR text: LFML 241630Z AUTO 18009KT CAVOK 19/06 Q1020 NOSIG
Conditions at: LFML (MARSEILLE/MARIGN, FR) observed 1630 UTC 24 March 2019
Temperature: 19.0°C (66°F)
Dewpoint: 6.0°C (43°F) [RH = 43%]
Pressure (altimeter): 30.12 inches Hg (1020.0 mb)
Winds: from the S (180 degrees) at 10 MPH (9 knots; 4.6 m/s)
Visibility: 6 or more miles (10+ km)
Ceiling: ceiling and visibility are OK
Clouds: unknown
Weather: no significant weather observed at this time

METAR text: LFML 241600Z AUTO 18009KT CAVOK 20/06 Q1020 NOSIG
Conditions at: LFML (MARSEILLE/MARIGN, FR) observed 1600 UTC 24 March 2019
Temperature: 20.0°C (68°F)
Dewpoint: 6.0°C (43°F) [RH = 40%]
Pressure (altimeter): 30.12 inches Hg (1020.0 mb)
Winds: from the S (180 degrees) at 10 MPH (9 knots; 4.6 m/s)
Visibility: 6 or more miles (10+ km)
Ceiling: ceiling and visibility are OK
Clouds: unknown
Weather: no significant weather observed at this time

METAR text: LFML 241530Z AUTO 18009KT CAVOK 20/06 Q1020 NOSIG
Conditions at: LFML (MARSEILLE/MARIGN, FR) observed 1530 UTC 24 March 2019
Temperature: 20.0°C (68°F)
Dewpoint: 6.0°C (43°F) [RH = 40%]
Pressure (altimeter): 30.12 inches Hg (1020.0 mb)
Winds: from the S (180 degrees) at 10 MPH (9 knots; 4.6 m/s)
Visibility: 6 or more miles (10+ km)
Ceiling: ceiling and visibility are OK
Clouds: unknown
Weather: no significant weather observed at this time

METAR text: LFML 241500Z AUTO 20008KT CAVOK 22/07 Q1020 NOSIG
Conditions at: LFML (MARSEILLE/MARIGN, FR) observed 1500 UTC 24 March 2019
Temperature: 22.0°C (72°F)
Dewpoint: 7.0°C (45°F) [RH = 38%]
Pressure (altimeter): 30.12 inches Hg (1020.0 mb)
Winds: from the SSW (200 degrees) at 9 MPH (8 knots; 4.1 m/s)
Visibility: 6 or more miles (10+ km)
Ceiling: ceiling and visibility are OK
Clouds: unknown
Weather: no significant weather observed at this time

METAR text: LFML 241430Z AUTO 20007KT CAVOK 22/06 Q1020 NOSIG
Conditions at: LFML (MARSEILLE/MARIGN, FR) observed 1430 UTC 24 March 2019
Temperature: 22.0°C (72°F)
Dewpoint: 6.0°C (43°F) [RH = 35%]
Pressure (altimeter): 30.12 inches Hg (1020.0 mb)
Winds: from the SSW (200 degrees) at 8 MPH (7 knots; 3.6 m/s)
Visibility: 6 or more miles (10+ km)
Ceiling: ceiling and visibility are OK
Clouds: unknown
Weather: no significant weather observed at this time

METAR text: LFML 241400Z AUTO 26006KT CAVOK 22/06 Q1021 NOSIG
Conditions at: LFML (MARSEILLE/MARIGN, FR) observed 1400 UTC 24 March 2019
Temperature: 22.0°C (72°F)
Dewpoint: 6.0°C (43°F) [RH = 35%]
Pressure (altimeter): 30.15 inches Hg (1021.0 mb)
Winds: from the W (260 degrees) at 7 MPH (6 knots; 3.1 m/s)
Visibility: 6 or more miles (10+ km)
Ceiling: ceiling and visibility are OK
Clouds: unknown
Weather: no significant weather observed at this time

METAR text: LFML 241330Z AUTO 26005KT CAVOK 22/08 Q1021 NOSIG
Conditions at: LFML (MARSEILLE/MARIGN, FR) observed 1330 UTC 24 March 2019
Temperature: 22.0°C (72°F)
Dewpoint: 8.0°C (46°F) [RH = 41%]
Pressure (altimeter): 30.15 inches Hg (1021.0 mb)
Winds: from the W (260 degrees) at 6 MPH (5 knots; 2.6 m/s)
Visibility: 6 or more miles (10+ km)
Ceiling: ceiling and visibility are OK
Clouds: unknown
Weather: no significant weather observed at this time

METAR text: LFML 241300Z AUTO 27004KT CAVOK 21/03 Q1021 NOSIG
Conditions at: LFML (MARSEILLE/MARIGN, FR) observed 1300 UTC 24 March 2019
Temperature: 21.0°C (70°F)
Dewpoint: 3.0°C (37°F) [RH = 30%]
Pressure (altimeter): 30.15 inches Hg (1021.0 mb)
Winds: from the W (270 degrees) at 5 MPH (4 knots; 2.1 m/s)
Visibility: 6 or more miles (10+ km)
Ceiling: ceiling and visibility are OK
Clouds: unknown
Weather: no significant weather observed at this time

METAR text: LFML 241230Z AUTO 28004KT CAVOK 21/06 Q1021 NOSIG
Conditions at: LFML (MARSEILLE/MARIGN, FR) observed 1230 UTC 24 March 2019
Temperature: 21.0°C (70°F)
Dewpoint: 6.0°C (43°F) [RH = 38%]
Pressure (altimeter): 30.15 inches Hg (1021.0 mb)
Winds: from the W (280 degrees) at 5 MPH (4 knots; 2.1 m/s)
Visibility: 6 or more miles (10+ km)
Ceiling: ceiling and visibility are OK
Clouds: unknown
Weather: no significant weather observed at this time

METAR text: LFML 241200Z AUTO 30003KT CAVOK 21/04 Q1022 NOSIG
Conditions at: LFML (MARSEILLE/MARIGN, FR) observed 1200 UTC 24 March 2019
Temperature: 21.0°C (70°F)
Dewpoint: 4.0°C (39°F) [RH = 33%]
Pressure (altimeter): 30.18 inches Hg (1022.0 mb)
Winds: from the WNW (300 degrees) at 3 MPH (3 knots; 1.5 m/s)
Visibility: 6 or more miles (10+ km)
Ceiling: ceiling and visibility are OK
Clouds: unknown
Weather: no significant weather observed at this time

METAR text: LFML 241130Z AUTO VRB02KT CAVOK 20/06 Q1022 NOSIG
Conditions at: LFML (MARSEILLE/MARIGN, FR) observed 1130 UTC 24 March 2019
Temperature: 20.0°C (68°F)
Dewpoint: 6.0°C (43°F) [RH = 40%]
Pressure (altimeter): 30.18 inches Hg (1022.0 mb)
Winds: variable direction winds at 2 MPH (2 knots; 1.0 m/s)
Visibility: 6 or more miles (10+ km)
Ceiling: ceiling and visibility are OK
Clouds: unknown
Weather: no significant weather observed at this time

METAR text: LFML 241100Z AUTO 29003KT 250V310 CAVOK 19/03 Q1023 NOSIG
Conditions at: LFML (MARSEILLE/MARIGN, FR) observed 1100 UTC 24 March 2019
Temperature: 19.0°C (66°F)
Dewpoint: 3.0°C (37°F) [RH = 34%]
Pressure (altimeter): 30.21 inches Hg (1023.0 mb)
Winds: from the WNW (290 degrees) at 3 MPH (3 knots; 1.5 m/s)
Visibility: 6 or more miles (10+ km)
Ceiling: ceiling and visibility are OK
Clouds: unknown
Weather: no significant weather observed at this time

METAR text: LFML 241030Z AUTO 27003KT CAVOK 17/05 Q1023 NOSIG
Conditions at: LFML (MARSEILLE/MARIGN, FR) observed 1030 UTC 24 March 2019
Temperature: 17.0°C (63°F)
Dewpoint: 5.0°C (41°F) [RH = 45%]
Pressure (altimeter): 30.21 inches Hg (1023.0 mb)
Winds: from the W (270 degrees) at 3 MPH (3 knots; 1.5 m/s)
Visibility: 6 or more miles (10+ km)
Ceiling: ceiling and visibility are OK
Clouds: unknown
Weather: no significant weather observed at this time

METAR text: LFML 241000Z AUTO 26005KT CAVOK 16/05 Q1023 NOSIG
Conditions at: LFML (MARSEILLE/MARIGN, FR) observed 1000 UTC 24 March 2019
Temperature: 16.0°C (61°F)
Dewpoint: 5.0°C (41°F) [RH = 48%]
Pressure (altimeter): 30.21 inches Hg (1023.0 mb)
Winds: from the W (260 degrees) at 6 MPH (5 knots; 2.6 m/s)
Visibility: 6 or more miles (10+ km)
Ceiling: ceiling and visibility are OK
Clouds: unknown
Weather: no significant weather observed at this time

METAR text: LFML 240930Z AUTO 29004KT CAVOK 16/06 Q1023 NOSIG
Conditions at: LFML (MARSEILLE/MARIGN, FR) observed 0930 UTC 24 March 2019
Temperature: 16.0°C (61°F)
Dewpoint: 6.0°C (43°F) [RH = 51%]
Pressure (altimeter): 30.21 inches Hg (1023.0 mb)
Winds: from the WNW (290 degrees) at 5 MPH (4 knots; 2.1 m/s)
Visibility: 6 or more miles (10+ km)
Ceiling: ceiling and visibility are OK
Clouds: unknown
Weather: no significant weather observed at this time

METAR text: LFML 240900Z AUTO VRB03KT CAVOK 17/04 Q1023 NOSIG
Conditions at: LFML (MARSEILLE/MARIGN, FR) observed 0900 UTC 24 March 2019
Temperature: 17.0°C (63°F)
Dewpoint: 4.0°C (39°F) [RH = 42%]
Pressure (altimeter): 30.21 inches Hg (1023.0 mb)
Winds: variable direction winds at 3 MPH (3 knots; 1.5 m/s)
Visibility: 6 or more miles (10+ km)
Ceiling: ceiling and visibility are OK
Clouds: unknown
Weather: no significant weather observed at this time

METAR text: LFML 240830Z AUTO 02003KT CAVOK 16/04 Q1023 NOSIG
Conditions at: LFML (MARSEILLE/MARIGN, FR) observed 0830 UTC 24 March 2019
Temperature: 16.0°C (61°F)
Dewpoint: 4.0°C (39°F) [RH = 45%]
Pressure (altimeter): 30.21 inches Hg (1023.0 mb)
Winds: from the NNE (20 degrees) at 3 MPH (3 knots; 1.5 m/s)
Visibility: 6 or more miles (10+ km)
Ceiling: ceiling and visibility are OK
Clouds: unknown
Weather: no significant weather observed at this time

METAR text: LFML 240800Z AUTO VRB02KT CAVOK 14/04 Q1023 NOSIG
Conditions at: LFML (MARSEILLE/MARIGN, FR) observed 0800 UTC 24 March 2019
Temperature: 14.0°C (57°F)
Dewpoint: 4.0°C (39°F) [RH = 51%]
Pressure (altimeter): 30.21 inches Hg (1023.0 mb)
Winds: variable direction winds at 2 MPH (2 knots; 1.0 m/s)
Visibility: 6 or more miles (10+ km)
Ceiling: ceiling and visibility are OK
Clouds: unknown
Weather: no significant weather observed at this time

METAR text: LFML 240730Z AUTO VRB02KT CAVOK 12/01 Q1023 NOSIG
Conditions at: LFML (MARSEILLE/MARIGN, FR) observed 0730 UTC 24 March 2019
Temperature: 12.0°C (54°F)
Dewpoint: 1.0°C (34°F) [RH = 47%]
Pressure (altimeter): 30.21 inches Hg (1023.0 mb)
Winds: variable direction winds at 2 MPH (2 knots; 1.0 m/s)
Visibility: 6 or more miles (10+ km)
Ceiling: ceiling and visibility are OK
Clouds: unknown
Weather: no significant weather observed at this time

METAR text: LFML 240700Z AUTO 10003KT 040V140 CAVOK 11/01 Q1023 NOSIG
Conditions at: LFML (MARSEILLE/MARIGN, FR) observed 0700 UTC 24 March 2019
Temperature: 11.0°C (52°F)
Dewpoint: 1.0°C (34°F) [RH = 50%]
Pressure (altimeter): 30.21 inches Hg (1023.0 mb)
Winds: from the E (100 degrees) at 3 MPH (3 knots; 1.5 m/s)
Visibility: 6 or more miles (10+ km)
Ceiling: ceiling and visibility are OK
Clouds: unknown
Weather: no significant weather observed at this time

Forecast for: AMD
Text: TAF AMD LFML 251653Z 2516/2621 33035G55KT CAVOK TX20/2516Z TN06/2606Z
Forecast period: 1600 to 2300 UTC 25 March 2019
Forecast type: FROM: standard forecast or significant change
Winds: from the NNW (330 degrees) at 40 MPH (35 knots; 18.0 m/s)
gusting to 63 MPH (55 knots; 28.3 m/s)
Visibility: 6 or more miles 10+ km)
Ceiling: unknown
Clouds: missing
Weather: no significant weather forecast for this period
Text: BECMG 2523/2524 33020G35KT
Forecast period: 2300 UTC 25 March 2019 to 0500 UTC 26 March 2019
Forecast type: BECOMING: Conditions expected to become as follows by 0000 UTC 26 March 2019
Winds: from the NNW (330 degrees) at 23 MPH (20 knots; 10.3 m/s)
gusting to 40 MPH (35 knots; 18.0 m/s)
Visibility: 6 or more miles 10+ km)
Ceiling: unknown
Clouds: missing
Weather: no significant weather forecast for this period
Text: BECMG 2605/2606 34010KT
Forecast period: 0500 to 0800 UTC 26 March 2019
Forecast type: BECOMING: Conditions expected to become as follows by 0600 UTC 26 March 2019
Winds: from the NNW (340 degrees) at 12 MPH (10 knots; 5.1 m/s)
Visibility: 6 or more miles 10+ km)
Ceiling: unknown
Clouds: missing
Weather: no significant weather forecast for this period
Text: BECMG 2608/2609 34015G25KT
Forecast period: 0800 to 1700 UTC 26 March 2019
Forecast type: BECOMING: Conditions expected to become as follows by 0900 UTC 26 March 2019
Winds: from the NNW (340 degrees) at 17 MPH (15 knots; 7.7 m/s)
gusting to 29 MPH (25 knots; 12.9 m/s)
Visibility: 6 or more miles 10+ km)
Ceiling: unknown
Clouds: missing
Weather: no significant weather forecast for this period
Text: BECMG 2617/2618 34010KT
Forecast period: 1700 to 2100 UTC 26 March 2019
Forecast type: BECOMING: Conditions expected to become as follows by 1800 UTC 26 March 2019
Winds: from the NNW (340 degrees) at 12 MPH (10 knots; 5.1 m/s)
Visibility: 6 or more miles 10+ km)
Ceiling: unknown
Clouds: missing
Weather: no significant weather forecast for this period